Weather History for Hammond, LA

Change the Weather History Date:

Thursday, November 10, 2011

  Actual Average (KMSY) Record (KMSY)
Temperature  
Mean Temperature 54 °F -  
Max Temperature 64 °F 71 °F 84 °F (1988)
Min Temperature 44 °F 51 °F 31 °F (1991)
Degree Days  
Heating Degree Days 11    
Growing Degree Days 4 (Base 50)    
Moisture  
Dew Point 37 °F    
Average Humidity 53    
Maximum Humidity 82    
Minimum Humidity 28    
Precipitation  
Precipitation 0.00 in - - ()
Sea Level Pressure  
Sea Level Pressure 30.25 in    
Wind  
Wind Speed 11 mph (NNW)    
Max Wind Speed 20 mph    
Max Gust Speed 29 mph    
Visibility 10 miles    
Events      
Averages and records for this station are not official NWS values.
T = Trace of Precipitation, MM = Missing Value Source: NWS Daily Summary

Daily Weather History Graph

Daily Weather History Graph

Search for Another Location

Airport:

Trip Planner

Search our weather history database for the weather conditions in past years. The results will help you decide how hot, cold, wet, or windy it might be!

Date:

Astronomy

Nov. 10, 2011 Rise Set
Actual Time 6:23 AM CST 5:07 PM CST
Civil Twilight 5:58 AM CST 5:32 PM CST
Nautical Twilight 5:29 AM CST 6:01 PM CST
Astronomical Twilight 5:00 AM CST 6:29 PM CST
Moon 4:59 PM CST (11/10) 6:12 AM CST (11/10)
Length of Visible Light 11h 34m
Length of Day
10h 44m
Full, 100% of the Moon is Illuminated
Nov 10
Full
Nov 10
Full
Nov 18
Last Quarter
Nov 25
New
Dec 2
First Quarter

Hourly Weather History & Observations

Time (CST) Temp. Windchill Dew Point Humidity Pressure Visibility Wind Dir Wind Speed Gust Speed Precip Events Conditions
12:15 AM 51.8 °F - 46.4 °F 82% 30.21 in 10.0 mi NNW 8.1 mph - N/A   Clear
12:35 AM 51.8 °F - 46.4 °F 82% 30.22 in 10.0 mi NNW 12.7 mph 16.1 mph N/A   Clear
12:55 AM 51.8 °F - 46.4 °F 82% 30.23 in 10.0 mi NNW 9.2 mph - N/A   Clear
1:15 AM 51.8 °F - 44.6 °F 76% 30.21 in 10.0 mi North 12.7 mph 17.3 mph N/A   Clear
1:35 AM 51.8 °F - 44.6 °F 76% 30.21 in 10.0 mi North 12.7 mph 18.4 mph N/A   Clear
1:55 AM 51.8 °F - 44.6 °F 76% 30.20 in 10.0 mi North 10.4 mph 18.4 mph N/A   Clear
2:15 AM 51.8 °F - 42.8 °F 71% 30.21 in 10.0 mi North 12.7 mph 24.2 mph N/A   Clear
2:35 AM 51.8 °F - 42.8 °F 71% 30.21 in 10.0 mi North 12.7 mph 20.7 mph N/A   Scattered Clouds
3:15 AM 51.8 °F - 41.0 °F 67% 30.22 in 10.0 mi North 12.7 mph 20.7 mph N/A   Overcast
3:35 AM 51.8 °F - 41.0 °F 67% 30.21 in 10.0 mi North 11.5 mph 21.9 mph N/A   Overcast
3:55 AM 51.8 °F - 39.2 °F 62% 30.22 in 10.0 mi North 11.5 mph 19.6 mph N/A   Scattered Clouds
4:15 AM 51.8 °F - 39.2 °F 62% 30.23 in 10.0 mi North 10.4 mph 20.7 mph N/A   Clear
4:55 AM 51.8 °F - 39.2 °F 62% 30.24 in 10.0 mi North 6.9 mph - N/A   Mostly Cloudy
5:15 AM 51.8 °F - 39.2 °F 62% 30.23 in 10.0 mi North 8.1 mph - N/A   Mostly Cloudy
5:55 AM 51.8 °F - 39.2 °F 62% 30.25 in 10.0 mi NNW 13.8 mph - N/A   Clear
6:15 AM 50.0 °F - 39.2 °F 66% 30.25 in 10.0 mi North 11.5 mph - N/A   Clear
6:35 AM 50.0 °F - 39.2 °F 66% 30.27 in 10.0 mi NW 8.1 mph - N/A   Clear
7:15 AM 50.0 °F - 39.2 °F 66% 30.28 in 10.0 mi NNW 6.9 mph - N/A   Clear
7:35 AM 50.0 °F - 41.0 °F 71% 30.29 in 10.0 mi NNW 5.8 mph - N/A   Clear
7:55 AM 50.0 °F - 41.0 °F 71% 30.28 in 10.0 mi North 5.8 mph - N/A   Clear
8:35 AM 51.8 °F - 41.0 °F 67% 30.30 in 10.0 mi NNW 10.4 mph - N/A   Clear
8:55 AM 51.8 °F - 41.0 °F 67% 30.30 in 10.0 mi NNW 10.4 mph 18.4 mph N/A   Clear
9:35 AM 55.4 °F - 41.0 °F 58% 30.29 in 10.0 mi North 15.0 mph 18.4 mph N/A   Clear
9:55 AM 55.4 °F - 39.2 °F 54% 30.31 in 10.0 mi North 13.8 mph 20.7 mph N/A   Clear
10:15 AM 57.2 °F - 39.2 °F 51% 30.31 in 10.0 mi North 15.0 mph - N/A   Clear
10:35 AM 57.2 °F - 37.4 °F 48% 30.30 in 10.0 mi North 15.0 mph 21.9 mph N/A   Clear
10:55 AM 59.0 °F - 37.4 °F 45% 30.29 in 10.0 mi North 12.7 mph 19.6 mph N/A   Clear
11:15 AM 60.8 °F - 37.4 °F 42% 30.29 in 10.0 mi North 19.6 mph 24.2 mph N/A   Clear
11:35 AM 60.8 °F - 37.4 °F 42% 30.27 in 10.0 mi NNW 13.8 mph 20.7 mph N/A   Clear
11:55 AM 60.8 °F - 35.6 °F 39% 30.27 in 10.0 mi NNW 13.8 mph 28.8 mph N/A   Clear
12:15 PM 60.8 °F - 35.6 °F 39% 30.26 in 10.0 mi NNW 16.1 mph 23.0 mph N/A   Clear
12:35 PM 60.8 °F - 35.6 °F 39% 30.24 in 10.0 mi NW 17.3 mph 21.9 mph N/A   Clear
12:55 PM 62.6 °F - 35.6 °F 37% 30.23 in 10.0 mi North 16.1 mph 21.9 mph N/A   Clear
1:15 PM 64.4 °F - 33.8 °F 32% 30.22 in 10.0 mi North 15.0 mph 24.2 mph N/A   Clear
1:35 PM 64.4 °F - 32.0 °F 30% 30.21 in 10.0 mi NNW 15.0 mph 24.2 mph N/A   Clear
1:55 PM 64.4 °F - 32.0 °F 30% 30.21 in 10.0 mi North 12.7 mph 20.7 mph N/A   Clear
2:15 PM 64.4 °F - 32.0 °F 30% 30.22 in 10.0 mi NW 17.3 mph 24.2 mph N/A   Clear
2:35 PM 64.4 °F - 30.2 °F 28% 30.21 in 10.0 mi NNW 17.3 mph 23.0 mph N/A   Clear
2:55 PM 64.4 °F - 32.0 °F 30% 30.21 in 10.0 mi North 12.7 mph 25.3 mph N/A   Clear
3:15 PM 62.6 °F - 32.0 °F 32% 30.21 in 10.0 mi NNW 15.0 mph 21.9 mph N/A   Clear
3:35 PM 62.6 °F - 32.0 °F 32% 30.21 in 10.0 mi NNW 11.5 mph 19.6 mph N/A   Clear
3:55 PM 62.6 °F - 30.2 °F 30% 30.21 in 10.0 mi NNW 13.8 mph 21.9 mph N/A   Clear
4:15 PM 60.8 °F - 30.2 °F 31% 30.21 in 10.0 mi North 11.5 mph 18.4 mph N/A   Clear
4:35 PM 59.0 °F - 32.0 °F 36% 30.22 in 10.0 mi NNW 10.4 mph - N/A   Clear
4:55 PM 57.2 °F - 32.0 °F 38% 30.22 in 10.0 mi NNW 6.9 mph - N/A   Clear
5:15 PM 55.4 °F - 32.0 °F 41% 30.23 in 10.0 mi NW 5.8 mph - N/A   Clear
5:35 PM 53.6 °F - 32.0 °F 44% 30.23 in 10.0 mi NNW 5.8 mph - N/A   Clear
5:55 PM 53.6 °F - 30.2 °F 41% 30.25 in 10.0 mi NW 8.1 mph - N/A   Clear
6:15 PM 51.8 °F - 32.0 °F 47% 30.26 in 10.0 mi NW 6.9 mph - N/A   Clear
6:35 PM 50.0 °F - 32.0 °F 50% 30.27 in 10.0 mi NNW 4.6 mph - N/A   Clear
6:55 PM 48.2 °F - 32.0 °F 54% 30.27 in 10.0 mi NNW 4.6 mph - N/A   Clear
7:15 PM 46.4 °F 44.3 °F 33.8 °F 62% 30.28 in 10.0 mi NW 4.6 mph - N/A   Clear
7:35 PM 48.2 °F - 32.0 °F 54% 30.29 in 10.0 mi NW 6.9 mph - N/A   Clear
7:55 PM 48.2 °F - 30.2 °F 50% 30.29 in 10.0 mi NW 6.9 mph - N/A   Clear
8:15 PM 44.6 °F 42.2 °F 32.0 °F 61% 30.30 in 10.0 mi NW 4.6 mph - N/A   Clear
8:35 PM 44.6 °F - 32.0 °F 61% 30.30 in 10.0 mi Calm Calm - N/A   Clear
8:55 PM 46.4 °F - 32.0 °F 57% 30.30 in 10.0 mi Calm Calm - N/A   Clear
9:15 PM 44.6 °F - 33.8 °F 66% 30.30 in 10.0 mi Calm Calm - N/A   Clear
9:35 PM 41.0 °F - 33.8 °F 76% 30.30 in 10.0 mi Calm Calm - N/A   Clear
9:55 PM 41.0 °F - 33.8 °F 76% 30.30 in 10.0 mi Calm Calm - N/A   Clear
10:15 PM 39.2 °F - 33.8 °F 81% 30.30 in 10.0 mi Calm Calm - N/A   Clear
10:35 PM 39.2 °F - 33.8 °F 81% 30.30 in 10.0 mi Calm Calm - N/A   Clear
10:55 PM 39.2 °F - 33.8 °F 81% 30.29 in 10.0 mi Calm Calm - N/A   Clear
11:15 PM 37.4 °F - 33.8 °F 87% 30.29 in 10.0 mi Calm Calm - N/A   Clear
11:35 PM 37.4 °F - 33.8 °F 87% 30.29 in 10.0 mi Calm Calm - N/A   Clear